sensor_id;sensor_type;location;lat;lon;timestamp;pressure;altitude;pressure_sealevel;temperature;humidity
43745;BME280;29359;53.048;8.732;2023-11-21T00:00:56;101033.41;;;8.31;86.97
43745;BME280;29359;53.048;8.732;2023-11-21T00:03:00;101040.31;;;8.32;86.98
43745;BME280;29359;53.048;8.732;2023-11-21T00:05:02;101035.97;;;8.33;87.06
43745;BME280;29359;53.048;8.732;2023-11-21T00:07:05;101037.72;;;8.32;87.13
43745;BME280;29359;53.048;8.732;2023-11-21T00:09:07;101042.91;;;8.32;87.22
43745;BME280;29359;53.048;8.732;2023-11-21T00:11:10;101049.03;;;8.31;87.22
43745;BME280;29359;53.048;8.732;2023-11-21T00:13:11;101049.88;;;8.32;87.12
43745;BME280;29359;53.048;8.732;2023-11-21T00:15:14;101050.72;;;8.32;87.21
43745;BME280;29359;53.048;8.732;2023-11-21T00:17:17;101051.56;;;8.33;87.25
43745;BME280;29359;53.048;8.732;2023-11-21T00:19:19;101054.19;;;8.33;87.25
43745;BME280;29359;53.048;8.732;2023-11-21T00:21:21;101052.47;;;8.33;87.15
43745;BME280;29359;53.048;8.732;2023-11-21T00:23:22;101053.31;;;8.34;87.11
43745;BME280;29359;53.048;8.732;2023-11-21T00:25:24;101057.66;;;8.33;87.12
43745;BME280;29359;53.048;8.732;2023-11-21T00:27:26;101062.91;;;8.32;87.00
43745;BME280;29359;53.048;8.732;2023-11-21T00:29:28;101064.69;;;8.30;87.12
43745;BME280;29359;53.048;8.732;2023-11-21T00:31:30;101056.09;;;8.26;87.00
43745;BME280;29359;53.048;8.732;2023-11-21T00:33:32;101056.13;;;8.25;87.17
43745;BME280;29359;53.048;8.732;2023-11-21T00:35:34;101063.09;;;8.24;87.23
43745;BME280;29359;53.048;8.732;2023-11-21T00:37:36;101060.47;;;8.26;87.32
43745;BME280;29359;53.048;8.732;2023-11-21T00:39:39;101062.16;;;8.27;87.30
43745;BME280;29359;53.048;8.732;2023-11-21T00:41:41;101059.56;;;8.27;87.09
43745;BME280;29359;53.048;8.732;2023-11-21T00:43:43;101060.41;;;8.27;87.28
43745;BME280;29359;53.048;8.732;2023-11-21T00:45:45;101058.72;;;8.25;87.15
43745;BME280;29359;53.048;8.732;2023-11-21T00:47:50;101063.09;;;8.24;87.16
43745;BME280;29359;53.048;8.732;2023-11-21T00:49:52;101063.09;;;8.24;87.41
43745;BME280;29359;53.048;8.732;2023-11-21T00:51:54;101063.94;;;8.25;87.36
43745;BME280;29359;53.048;8.732;2023-11-21T00:53:56;101073.50;;;8.24;87.38
43745;BME280;29359;53.048;8.732;2023-11-21T00:55:58;101066.59;;;8.23;87.44
43745;BME280;29359;53.048;8.732;2023-11-21T00:58:00;101074.34;;;8.25;87.50
43745;BME280;29359;53.048;8.732;2023-11-21T01:00:05;101078.69;;;8.26;87.47
43745;BME280;29359;53.048;8.732;2023-11-21T01:02:15;101082.09;;;8.28;87.35
43745;BME280;29359;53.048;8.732;2023-11-21T01:04:17;101086.38;;;8.29;87.55
43745;BME280;29359;53.048;8.732;2023-11-21T01:06:19;101083.78;;;8.29;87.40
43745;BME280;29359;53.048;8.732;2023-11-21T01:08:21;101086.38;;;8.29;87.50
43745;BME280;29359;53.048;8.732;2023-11-21T01:10:23;101090.75;;;8.28;87.54
43745;BME280;29359;53.048;8.732;2023-11-21T01:12:26;101088.13;;;8.30;87.60
43745;BME280;29359;53.048;8.732;2023-11-21T01:14:28;101090.75;;;8.28;87.38
43745;BME280;29359;53.048;8.732;2023-11-21T01:16:30;101090.72;;;8.30;87.41
43745;BME280;29359;53.048;8.732;2023-11-21T01:18:37;101092.47;;;8.29;87.54
43745;BME280;29359;53.048;8.732;2023-11-21T01:20:39;101091.59;;;8.29;87.52
43745;BME280;29359;53.048;8.732;2023-11-21T01:22:41;101091.69;;;8.26;87.63
43745;BME280;29359;53.048;8.732;2023-11-21T01:24:43;101100.38;;;8.25;87.52
43745;BME280;29359;53.048;8.732;2023-11-21T01:26:45;101108.19;;;8.25;87.70
43745;BME280;29359;53.048;8.732;2023-11-21T01:28:48;101104.72;;;8.24;87.69
43745;BME280;29359;53.048;8.732;2023-11-21T01:30:50;101105.63;;;8.23;87.66
43745;BME280;29359;53.048;8.732;2023-11-21T01:32:52;101112.56;;;8.23;87.89
43745;BME280;29359;53.048;8.732;2023-11-21T01:34:54;101111.66;;;8.25;87.65
43745;BME280;29359;53.048;8.732;2023-11-21T01:36:59;101115.13;;;8.26;87.60
43745;BME280;29359;53.048;8.732;2023-11-21T01:39:01;101115.06;;;8.27;87.80
43745;BME280;29359;53.048;8.732;2023-11-21T01:41:03;101115.06;;;8.27;87.75
43745;BME280;29359;53.048;8.732;2023-11-21T01:43:05;101119.41;;;8.27;87.60
43745;BME280;29359;53.048;8.732;2023-11-21T01:45:08;101115.97;;;8.26;87.60
43745;BME280;29359;53.048;8.732;2023-11-21T01:47:11;101120.28;;;8.27;87.59
43745;BME280;29359;53.048;8.732;2023-11-21T01:49:14;101126.31;;;8.29;87.39
43745;BME280;29359;53.048;8.732;2023-11-21T01:51:17;101126.31;;;8.29;87.66
43745;BME280;29359;53.048;8.732;2023-11-21T01:53:20;101127.19;;;8.28;87.59
43745;BME280;29359;53.048;8.732;2023-11-21T01:55:22;101128.91;;;8.29;87.78
43745;BME280;29359;53.048;8.732;2023-11-21T01:57:29;101137.59;;;8.28;87.69
43745;BME280;29359;53.048;8.732;2023-11-21T01:59:34;101125.53;;;8.26;87.64
43745;BME280;29359;53.048;8.732;2023-11-21T02:01:36;101134.25;;;8.23;87.80
43745;BME280;29359;53.048;8.732;2023-11-21T02:03:38;101134.31;;;8.20;87.64
43745;BME280;29359;53.048;8.732;2023-11-21T02:05:40;101133.50;;;8.18;87.47
43745;BME280;29359;53.048;8.732;2023-11-21T02:07:42;101137.03;;;8.16;87.92
43745;BME280;29359;53.048;8.732;2023-11-21T02:09:46;101140.47;;;8.16;87.99
43745;BME280;29359;53.048;8.732;2023-11-21T02:11:49;101145.69;;;8.16;87.94
43745;BME280;29359;53.048;8.732;2023-11-21T02:13:51;101149.16;;;8.17;88.04
43745;BME280;29359;53.048;8.732;2023-11-21T02:15:55;101141.34;;;8.17;87.87
43745;BME280;29359;53.048;8.732;2023-11-21T02:17:57;101148.28;;;8.16;88.03
43745;BME280;29359;53.048;8.732;2023-11-21T02:20:00;101150.94;;;8.15;87.84
43745;BME280;29359;53.048;8.732;2023-11-21T02:22:02;101157.03;;;8.14;88.02
43745;BME280;29359;53.048;8.732;2023-11-21T02:24:08;101170.00;;;8.15;87.98
43745;BME280;29359;53.048;8.732;2023-11-21T02:26:10;101170.00;;;8.15;87.90
43745;BME280;29359;53.048;8.732;2023-11-21T02:28:12;101175.25;;;8.14;87.94
43745;BME280;29359;53.048;8.732;2023-11-21T02:30:17;101172.63;;;8.15;88.24
43745;BME280;29359;53.048;8.732;2023-11-21T02:32:18;101174.28;;;8.18;88.09
43745;BME280;29359;53.048;8.732;2023-11-21T02:34:23;101170.72;;;8.22;88.14
43745;BME280;29359;53.048;8.732;2023-11-21T02:36:27;101172.38;;;8.24;88.27
43745;BME280;29359;53.048;8.732;2023-11-21T02:38:28;101171.47;;;8.27;87.95
43745;BME280;29359;53.048;8.732;2023-11-21T02:40:30;101179.13;;;8.33;87.76
43745;BME280;29359;53.048;8.732;2023-11-21T02:42:32;101178.25;;;8.34;87.91
43745;BME280;29359;53.048;8.732;2023-11-21T02:44:34;101191.22;;;8.37;86.83
43745;BME280;29359;53.048;8.732;2023-11-21T02:46:37;101185.97;;;8.39;87.08
43745;BME280;29359;53.048;8.732;2023-11-21T02:48:39;101187.66;;;8.41;86.95
43745;BME280;29359;53.048;8.732;2023-11-21T02:50:40;101186.81;;;8.39;87.38
43745;BME280;29359;53.048;8.732;2023-11-21T02:52:43;101185.06;;;8.41;87.29
43745;BME280;29359;53.048;8.732;2023-11-21T02:54:45;101182.41;;;8.43;87.19
43745;BME280;29359;53.048;8.732;2023-11-21T02:56:47;101194.50;;;8.45;87.18
43745;BME280;29359;53.048;8.732;2023-11-21T02:58:51;101187.50;;;8.47;86.45
43745;BME280;29359;53.048;8.732;2023-11-21T03:00:52;101191.00;;;8.46;85.84
43745;BME280;29359;53.048;8.732;2023-11-21T03:02:56;101192.69;;;8.47;85.34
43745;BME280;29359;53.048;8.732;2023-11-21T03:04:58;101197.84;;;8.49;84.76
43745;BME280;29359;53.048;8.732;2023-11-21T03:07:00;101194.41;;;8.48;84.29
43745;BME280;29359;53.048;8.732;2023-11-21T03:09:02;101204.81;;;8.50;83.40
43745;BME280;29359;53.048;8.732;2023-11-21T03:11:04;101190.88;;;8.51;83.28
43745;BME280;29359;53.048;8.732;2023-11-21T03:13:06;101199.53;;;8.51;83.01
43745;BME280;29359;53.048;8.732;2023-11-21T03:15:08;101206.44;;;8.54;82.79
43745;BME280;29359;53.048;8.732;2023-11-21T03:17:10;101205.59;;;8.52;82.18
43745;BME280;29359;53.048;8.732;2023-11-21T03:19:13;101210.78;;;8.53;81.75
43745;BME280;29359;53.048;8.732;2023-11-21T03:21:16;101200.44;;;8.50;80.94
43745;BME280;29359;53.048;8.732;2023-11-21T03:23:18;101211.78;;;8.48;80.20
43745;BME280;29359;53.048;8.732;2023-11-21T03:25:20;101212.72;;;8.45;80.36
43745;BME280;29359;53.048;8.732;2023-11-21T03:27:22;101214.44;;;8.46;80.20
43745;BME280;29359;53.048;8.732;2023-11-21T03:29:23;101210.03;;;8.48;80.37
43745;BME280;29359;53.048;8.732;2023-11-21T03:31:25;101223.03;;;8.50;80.15
43745;BME280;29359;53.048;8.732;2023-11-21T03:33:28;101217.84;;;8.48;80.11
43745;BME280;29359;53.048;8.732;2023-11-21T03:35:30;101217.00;;;8.48;79.95
43745;BME280;29359;53.048;8.732;2023-11-21T03:37:31;101223.03;;;8.48;80.13
43745;BME280;29359;53.048;8.732;2023-11-21T03:39:33;101229.09;;;8.49;79.97
43745;BME280;29359;53.048;8.732;2023-11-21T03:41:35;101230.00;;;8.49;80.00
43745;BME280;29359;53.048;8.732;2023-11-21T03:43:37;101247.38;;;8.47;79.99
43745;BME280;29359;53.048;8.732;2023-11-21T03:45:39;101242.16;;;8.47;79.96
43745;BME280;29359;53.048;8.732;2023-11-21T03:47:42;101244.81;;;8.46;79.77
43745;BME280;29359;53.048;8.732;2023-11-21T03:49:44;101241.38;;;8.44;79.84
43745;BME280;29359;53.048;8.732;2023-11-21T03:51:46;101250.03;;;8.44;79.87
43745;BME280;29359;53.048;8.732;2023-11-21T03:53:47;101256.09;;;8.45;79.86
43745;BME280;29359;53.048;8.732;2023-11-21T03:55:49;101249.25;;;8.42;79.79
43745;BME280;29359;53.048;8.732;2023-11-21T03:57:52;101260.56;;;8.41;80.02
43745;BME280;29359;53.048;8.732;2023-11-21T03:59:54;101260.56;;;8.40;80.13
43745;BME280;29359;53.048;8.732;2023-11-21T04:01:56;101261.47;;;8.39;80.14
43745;BME280;29359;53.048;8.732;2023-11-21T04:04:01;101264.97;;;8.38;80.22
43745;BME280;29359;53.048;8.732;2023-11-21T04:06:03;101270.22;;;8.33;80.24
43745;BME280;29359;53.048;8.732;2023-11-21T04:08:05;101278.91;;;8.32;80.20
43745;BME280;29359;53.048;8.732;2023-11-21T04:10:07;101283.22;;;8.33;80.30
43745;BME280;29359;53.048;8.732;2023-11-21T04:12:14;101291.97;;;8.30;80.51
43745;BME280;29359;53.048;8.732;2023-11-21T04:14:16;101285.06;;;8.29;80.48
43745;BME280;29359;53.048;8.732;2023-11-21T04:16:18;101298.09;;;8.28;80.29
43745;BME280;29359;53.048;8.732;2023-11-21T04:18:20;101295.53;;;8.26;80.42
43745;BME280;29359;53.048;8.732;2023-11-21T04:20:22;101295.53;;;8.26;80.44
43745;BME280;29359;53.048;8.732;2023-11-21T04:22:25;101301.66;;;8.24;80.41
43745;BME280;29359;53.048;8.732;2023-11-21T04:24:27;101301.66;;;8.24;80.35
43745;BME280;29359;53.048;8.732;2023-11-21T04:26:28;101304.31;;;8.21;80.94
43745;BME280;29359;53.048;8.732;2023-11-21T04:28:30;101307.75;;;8.23;80.75
43745;BME280;29359;53.048;8.732;2023-11-21T04:30:32;101304.31;;;8.22;80.75
43745;BME280;29359;53.048;8.732;2023-11-21T04:32:34;101310.47;;;8.18;80.86
43745;BME280;29359;53.048;8.732;2023-11-21T04:34:36;101316.59;;;8.16;80.43
43745;BME280;29359;53.048;8.732;2023-11-21T04:36:39;101316.59;;;8.16;80.61
43745;BME280;29359;53.048;8.732;2023-11-21T04:38:41;101323.53;;;8.15;80.79
43745;BME280;29359;53.048;8.732;2023-11-21T04:40:44;101325.28;;;8.13;81.06
43745;BME280;29359;53.048;8.732;2023-11-21T04:42:46;101326.19;;;8.14;80.89
43745;BME280;29359;53.048;8.732;2023-11-21T04:44:49;101329.66;;;8.12;80.97
43745;BME280;29359;53.048;8.732;2023-11-21T04:46:50;101332.28;;;8.11;80.65
43745;BME280;29359;53.048;8.732;2023-11-21T04:48:52;101334.91;;;8.09;80.86
43745;BME280;29359;53.048;8.732;2023-11-21T04:50:54;101347.16;;;8.06;81.01
43745;BME280;29359;53.048;8.732;2023-11-21T04:52:56;101351.47;;;8.07;80.99
43745;BME280;29359;53.048;8.732;2023-11-21T04:54:58;101361.13;;;8.00;80.97
43745;BME280;29359;53.048;8.732;2023-11-21T04:57:00;101364.63;;;7.99;81.03
43745;BME280;29359;53.048;8.732;2023-11-21T04:59:02;101369.88;;;7.96;81.11
43745;BME280;29359;53.048;8.732;2023-11-21T05:01:04;101364.69;;;7.95;81.17
43745;BME280;29359;53.048;8.732;2023-11-21T05:03:09;101369.91;;;7.93;81.33
43745;BME280;29359;53.048;8.732;2023-11-21T05:05:11;101368.16;;;7.94;81.51
43745;BME280;29359;53.048;8.732;2023-11-21T05:07:13;101373.38;;;7.94;81.30
43745;BME280;29359;53.048;8.732;2023-11-21T05:09:15;101372.53;;;7.93;81.49
43745;BME280;29359;53.048;8.732;2023-11-21T05:11:27;101381.19;;;7.94;81.58
43745;BME280;29359;53.048;8.732;2023-11-21T05:13:29;101382.13;;;7.91;81.34
43745;BME280;29359;53.048;8.732;2023-11-21T05:15:31;101379.50;;;7.90;81.35
43745;BME280;29359;53.048;8.732;2023-11-21T05:17:33;101389.06;;;7.89;81.33
43745;BME280;29359;53.048;8.732;2023-11-21T05:19:36;101390.84;;;7.87;81.19
43745;BME280;29359;53.048;8.732;2023-11-21T05:21:38;101401.28;;;7.85;81.35
43745;BME280;29359;53.048;8.732;2023-11-21T05:23:39;101398.75;;;7.82;81.23
43745;BME280;29359;53.048;8.732;2023-11-21T05:25:41;101404.81;;;7.81;81.29
43745;BME280;29359;53.048;8.732;2023-11-21T05:27:46;101408.34;;;7.79;81.36
43745;BME280;29359;53.048;8.732;2023-11-21T05:29:48;101404.00;;;7.78;81.45
43745;BME280;29359;53.048;8.732;2023-11-21T05:31:49;101412.69;;;7.77;81.40
43745;BME280;29359;53.048;8.732;2023-11-21T05:33:51;101417.09;;;7.75;81.66
43745;BME280;29359;53.048;8.732;2023-11-21T05:35:53;101410.16;;;7.74;81.48
43745;BME280;29359;53.048;8.732;2023-11-21T05:37:55;101418.84;;;7.74;81.57
43745;BME280;29359;53.048;8.732;2023-11-21T05:39:56;101419.72;;;7.72;81.66
43745;BME280;29359;53.048;8.732;2023-11-21T05:41:58;101423.22;;;7.71;81.52
43745;BME280;29359;53.048;8.732;2023-11-21T05:44:01;101432.75;;;7.70;81.38
43745;BME280;29359;53.048;8.732;2023-11-21T05:46:03;101433.63;;;7.69;81.51
43745;BME280;29359;53.048;8.732;2023-11-21T05:48:05;101438.88;;;7.66;81.32
43745;BME280;29359;53.048;8.732;2023-11-21T05:50:08;101445.81;;;7.66;81.48
43745;BME280;29359;53.048;8.732;2023-11-21T05:52:16;101451.06;;;7.64;81.32
43745;BME280;29359;53.048;8.732;2023-11-21T05:54:18;101453.72;;;7.61;81.41
43745;BME280;29359;53.048;8.732;2023-11-21T05:56:20;101458.09;;;7.59;81.58
43745;BME280;29359;53.048;8.732;2023-11-21T05:58:22;101455.53;;;7.54;81.46
43745;BME280;29359;53.048;8.732;2023-11-21T06:00:24;101464.25;;;7.52;81.46
43745;BME280;29359;53.048;8.732;2023-11-21T06:02:27;101468.66;;;7.48;81.59
43745;BME280;29359;53.048;8.732;2023-11-21T06:04:29;101472.19;;;7.44;81.78
43745;BME280;29359;53.048;8.732;2023-11-21T06:06:32;101481.72;;;7.44;81.68
43745;BME280;29359;53.048;8.732;2023-11-21T06:08:34;101481.78;;;7.39;81.81
43745;BME280;29359;53.048;8.732;2023-11-21T06:10:35;101486.19;;;7.35;81.80
43745;BME280;29359;53.048;8.732;2023-11-21T06:12:38;101493.13;;;7.35;81.83
43745;BME280;29359;53.048;8.732;2023-11-21T06:14:41;101491.38;;;7.34;81.64
43745;BME280;29359;53.048;8.732;2023-11-21T06:16:43;101486.22;;;7.31;81.70
43745;BME280;29359;53.048;8.732;2023-11-21T06:18:47;101494.00;;;7.31;81.73
43745;BME280;29359;53.048;8.732;2023-11-21T06:20:48;101500.94;;;7.30;81.81
43745;BME280;29359;53.048;8.732;2023-11-21T06:22:51;101504.44;;;7.29;81.82
43745;BME280;29359;53.048;8.732;2023-11-21T06:24:54;101510.56;;;7.25;81.87
43745;BME280;29359;53.048;8.732;2023-11-21T06:26:55;101516.63;;;7.26;81.89
43745;BME280;29359;53.048;8.732;2023-11-21T06:28:57;101514.88;;;7.26;81.75
43745;BME280;29359;53.048;8.732;2023-11-21T06:30:59;101527.00;;;7.26;81.97
43745;BME280;29359;53.048;8.732;2023-11-21T06:33:07;101531.38;;;7.24;81.57
43745;BME280;29359;53.048;8.732;2023-11-21T06:35:09;101542.63;;;7.23;81.60
43745;BME280;29359;53.048;8.732;2023-11-21T06:37:11;101545.31;;;7.20;81.53
43745;BME280;29359;53.048;8.732;2023-11-21T06:39:13;101548.81;;;7.14;81.62
43745;BME280;29359;53.048;8.732;2023-11-21T06:41:16;101542.75;;;7.13;81.50
43745;BME280;29359;53.048;8.732;2023-11-21T06:43:18;101555.78;;;7.10;81.64
43745;BME280;29359;53.048;8.732;2023-11-21T06:45:20;101562.72;;;7.10;81.83
43745;BME280;29359;53.048;8.732;2023-11-21T06:47:23;101567.09;;;7.06;81.53
43745;BME280;29359;53.048;8.732;2023-11-21T06:49:31;101568.81;;;7.09;81.63
43745;BME280;29359;53.048;8.732;2023-11-21T06:51:33;101573.16;;;7.08;81.37
43745;BME280;29359;53.048;8.732;2023-11-21T06:53:36;101579.25;;;7.04;81.55
43745;BME280;29359;53.048;8.732;2023-11-21T06:55:39;101576.66;;;7.04;81.41
43745;BME280;29359;53.048;8.732;2023-11-21T06:57:41;101582.72;;;7.03;81.63
43745;BME280;29359;53.048;8.732;2023-11-21T06:59:44;101580.16;;;7.02;81.46
43745;BME280;29359;53.048;8.732;2023-11-21T07:01:46;101588.78;;;7.02;81.32
43745;BME280;29359;53.048;8.732;2023-11-21T07:03:48;101598.34;;;7.00;81.50
43745;BME280;29359;53.048;8.732;2023-11-21T07:05:50;101600.97;;;7.00;81.30
43745;BME280;29359;53.048;8.732;2023-11-21T07:07:51;101609.59;;;7.01;81.29
43745;BME280;29359;53.048;8.732;2023-11-21T07:09:55;101608.75;;;6.99;81.40
43745;BME280;29359;53.048;8.732;2023-11-21T07:11:57;101611.34;;;6.99;81.25
43745;BME280;29359;53.048;8.732;2023-11-21T07:13:59;101616.56;;;6.97;81.35
43745;BME280;29359;53.048;8.732;2023-11-21T07:16:01;101624.31;;;6.99;81.12
43745;BME280;29359;53.048;8.732;2023-11-21T07:18:03;101621.75;;;6.97;81.22
43745;BME280;29359;53.048;8.732;2023-11-21T07:20:05;101625.25;;;6.96;80.96
43745;BME280;29359;53.048;8.732;2023-11-21T07:22:08;101629.59;;;6.96;80.67
43745;BME280;29359;53.048;8.732;2023-11-21T07:24:10;101629.59;;;6.96;80.90
43745;BME280;29359;53.048;8.732;2023-11-21T07:26:12;101631.31;;;6.94;80.94
43745;BME280;29359;53.048;8.732;2023-11-21T07:28:14;101632.22;;;6.93;80.92
43745;BME280;29359;53.048;8.732;2023-11-21T07:30:16;101633.09;;;6.90;80.87
43745;BME280;29359;53.048;8.732;2023-11-21T07:32:19;101641.75;;;6.89;81.08
43745;BME280;29359;53.048;8.732;2023-11-21T07:34:21;101633.97;;;6.89;81.04
43745;BME280;29359;53.048;8.732;2023-11-21T07:36:23;101640.03;;;6.89;80.85
43745;BME280;29359;53.048;8.732;2023-11-21T07:38:25;101641.75;;;6.89;80.63
43745;BME280;29359;53.048;8.732;2023-11-21T07:40:29;101640.91;;;6.88;80.61
43745;BME280;29359;53.048;8.732;2023-11-21T07:42:32;101638.31;;;6.87;80.90
43745;BME280;29359;53.048;8.732;2023-11-21T07:44:34;101652.16;;;6.87;80.74
43745;BME280;29359;53.048;8.732;2023-11-21T07:46:36;101646.09;;;6.88;80.63
43745;BME280;29359;53.048;8.732;2023-11-21T07:48:41;101656.50;;;6.85;80.82
43745;BME280;29359;53.048;8.732;2023-11-21T07:50:43;101659.13;;;6.84;80.59
43745;BME280;29359;53.048;8.732;2023-11-21T07:52:45;101673.81;;;6.83;80.81
43745;BME280;29359;53.048;8.732;2023-11-21T07:54:47;101671.22;;;6.83;80.61
43745;BME280;29359;53.048;8.732;2023-11-21T07:56:49;101682.50;;;6.84;80.50
43745;BME280;29359;53.048;8.732;2023-11-21T07:58:51;101687.72;;;6.84;80.37
43745;BME280;29359;53.048;8.732;2023-11-21T08:00:54;101685.97;;;6.81;80.29
43745;BME280;29359;53.048;8.732;2023-11-21T08:02:56;101688.59;;;6.80;80.37
43745;BME280;29359;53.048;8.732;2023-11-21T08:04:58;101690.31;;;6.81;80.35
43745;BME280;29359;53.048;8.732;2023-11-21T08:07:01;101692.03;;;6.82;80.35
43745;BME280;29359;53.048;8.732;2023-11-21T08:09:03;101705.00;;;6.85;80.61
43745;BME280;29359;53.048;8.732;2023-11-21T08:11:05;101703.28;;;6.84;80.07
43745;BME280;29359;53.048;8.732;2023-11-21T08:13:07;101702.41;;;6.82;79.97
43745;BME280;29359;53.048;8.732;2023-11-21T08:15:10;101711.94;;;6.83;80.16
43745;BME280;29359;53.048;8.732;2023-11-21T08:17:12;101704.13;;;6.84;80.06
43745;BME280;29359;53.048;8.732;2023-11-21T08:19:18;101709.31;;;6.86;80.14
43745;BME280;29359;53.048;8.732;2023-11-21T08:21:20;101714.50;;;6.86;79.99
43745;BME280;29359;53.048;8.732;2023-11-21T08:23:22;101722.31;;;6.84;79.63
43745;BME280;29359;53.048;8.732;2023-11-21T08:25:27;101724.88;;;6.86;79.80
43745;BME280;29359;53.048;8.732;2023-11-21T08:27:29;101732.69;;;6.86;79.58
43745;BME280;29359;53.048;8.732;2023-11-21T08:29:30;101728.34;;;6.86;79.53
43745;BME280;29359;53.048;8.732;2023-11-21T08:31:33;101730.94;;;6.88;79.63
43745;BME280;29359;53.048;8.732;2023-11-21T08:33:35;101734.41;;;6.88;79.78
43745;BME280;29359;53.048;8.732;2023-11-21T08:35:37;101743.06;;;6.89;79.66
43745;BME280;29359;53.048;8.732;2023-11-21T08:37:39;101748.22;;;6.91;79.29
43745;BME280;29359;53.048;8.732;2023-11-21T08:39:41;101737.84;;;6.91;79.74
43745;BME280;29359;53.048;8.732;2023-11-21T08:41:43;101740.44;;;6.92;79.41
43745;BME280;29359;53.048;8.732;2023-11-21T08:43:45;101744.75;;;6.92;79.25
43745;BME280;29359;53.048;8.732;2023-11-21T08:45:47;101749.97;;;6.88;79.19
43745;BME280;29359;53.048;8.732;2023-11-21T08:47:48;101755.19;;;6.88;79.29
43745;BME280;29359;53.048;8.732;2023-11-21T08:49:50;101762.94;;;6.90;79.46
43745;BME280;29359;53.048;8.732;2023-11-21T08:51:54;101768.16;;;6.87;79.45
43745;BME280;29359;53.048;8.732;2023-11-21T08:54:01;101765.59;;;6.85;79.47
43745;BME280;29359;53.048;8.732;2023-11-21T08:56:06;101767.31;;;6.86;79.49
43745;BME280;29359;53.048;8.732;2023-11-21T08:58:08;101768.19;;;6.85;79.45
43745;BME280;29359;53.048;8.732;2023-11-21T09:00:11;101775.09;;;6.86;79.49
43745;BME280;29359;53.048;8.732;2023-11-21T09:02:13;101781.16;;;6.85;79.46
43745;BME280;29359;53.048;8.732;2023-11-21T09:04:15;101788.97;;;6.84;79.54
43745;BME280;29359;53.048;8.732;2023-11-21T09:06:17;101790.72;;;6.82;79.43
43745;BME280;29359;53.048;8.732;2023-11-21T09:08:19;101800.22;;;6.84;79.58
43745;BME280;29359;53.048;8.732;2023-11-21T09:10:20;101813.19;;;6.86;79.38
43745;BME280;29359;53.048;8.732;2023-11-21T09:12:22;101813.19;;;6.86;79.46
43745;BME280;29359;53.048;8.732;2023-11-21T09:14:26;101820.97;;;6.87;79.41
43745;BME280;29359;53.048;8.732;2023-11-21T09:16:28;101829.59;;;6.91;79.39
43745;BME280;29359;53.048;8.732;2023-11-21T09:18:29;101828.75;;;6.92;79.23
43745;BME280;29359;53.048;8.732;2023-11-21T09:20:32;101832.19;;;6.91;79.21
43745;BME280;29359;53.048;8.732;2023-11-21T09:22:34;101839.13;;;6.91;79.04
43745;BME280;29359;53.048;8.732;2023-11-21T09:24:38;101840.00;;;6.89;79.32
43745;BME280;29359;53.048;8.732;2023-11-21T09:26:41;101838.25;;;6.90;79.16
43745;BME280;29359;53.048;8.732;2023-11-21T09:28:44;101839.09;;;6.95;79.04
43745;BME280;29359;53.048;8.732;2023-11-21T09:30:48;101846.84;;;6.98;78.86
43745;BME280;29359;53.048;8.732;2023-11-21T09:32:51;101839.06;;;6.98;78.83
43745;BME280;29359;53.048;8.732;2023-11-21T09:34:53;101852.94;;;7.00;78.78
43745;BME280;29359;53.048;8.732;2023-11-21T09:36:57;101852.09;;;6.97;78.88
43745;BME280;29359;53.048;8.732;2023-11-21T09:38:58;101858.16;;;6.94;79.07
43745;BME280;29359;53.048;8.732;2023-11-21T09:41:02;101861.59;;;6.95;78.93
43745;BME280;29359;53.048;8.732;2023-11-21T09:43:16;101863.31;;;6.99;78.97
43745;BME280;29359;53.048;8.732;2023-11-21T09:45:32;101864.16;;;7.01;78.80
43745;BME280;29359;53.048;8.732;2023-11-21T09:47:38;101875.41;;;7.01;78.82
43745;BME280;29359;53.048;8.732;2023-11-21T09:49:40;101878.91;;;7.00;78.78
43745;BME280;29359;53.048;8.732;2023-11-21T09:51:43;101883.19;;;7.04;78.81
43745;BME280;29359;53.048;8.732;2023-11-21T09:53:47;101888.34;;;7.09;78.58
43745;BME280;29359;53.048;8.732;2023-11-21T09:55:52;101884.00;;;7.16;78.54
43745;BME280;29359;53.048;8.732;2023-11-21T09:57:56;101888.28;;;7.20;77.97
43745;BME280;29359;53.048;8.732;2023-11-21T10:00:00;101895.19;;;7.24;78.08
43745;BME280;29359;53.048;8.732;2023-11-21T10:02:07;101895.19;;;7.24;77.98
43745;BME280;29359;53.048;8.732;2023-11-21T10:04:14;101895.16;;;7.25;78.01
43745;BME280;29359;53.048;8.732;2023-11-21T10:06:17;101893.41;;;7.26;77.95
43745;BME280;29359;53.048;8.732;2023-11-21T10:08:21;101899.47;;;7.26;77.81
43745;BME280;29359;53.048;8.732;2023-11-21T10:10:24;101904.72;;;7.23;77.86
43745;BME280;29359;53.048;8.732;2023-11-21T10:12:28;101903.84;;;7.24;78.03
43745;BME280;29359;53.048;8.732;2023-11-21T10:14:30;101898.66;;;7.21;77.84
43745;BME280;29359;53.048;8.732;2023-11-21T10:16:32;101904.72;;;7.22;77.92
43745;BME280;29359;53.048;8.732;2023-11-21T10:18:35;101909.03;;;7.24;77.98
43745;BME280;29359;53.048;8.732;2023-11-21T10:20:40;101915.06;;;7.28;77.79
43745;BME280;29359;53.048;8.732;2023-11-21T10:22:42;101907.28;;;7.28;77.78
43745;BME280;29359;53.048;8.732;2023-11-21T10:24:45;101903.81;;;7.29;77.60
43745;BME280;29359;53.048;8.732;2023-11-21T10:26:54;101915.91;;;7.31;77.73
43745;BME280;29359;53.048;8.732;2023-11-21T10:29:03;101910.69;;;7.33;77.80
43745;BME280;29359;53.048;8.732;2023-11-21T10:31:06;101918.47;;;7.36;77.66
43745;BME280;29359;53.048;8.732;2023-11-21T10:33:09;101921.91;;;7.38;77.58
43745;BME280;29359;53.048;8.732;2023-11-21T10:35:10;101925.38;;;7.40;77.44
43745;BME280;29359;53.048;8.732;2023-11-21T10:37:12;101918.41;;;7.42;77.32
43745;BME280;29359;53.048;8.732;2023-11-21T10:39:16;101922.75;;;7.45;77.17
43745;BME280;29359;53.048;8.732;2023-11-21T10:41:22;101911.44;;;7.49;77.11
43745;BME280;29359;53.048;8.732;2023-11-21T10:43:27;101907.09;;;7.51;76.98
43745;BME280;29359;53.048;8.732;2023-11-21T10:45:29;101916.63;;;7.52;76.90
43745;BME280;29359;53.048;8.732;2023-11-21T10:47:31;101919.25;;;7.49;76.88
43745;BME280;29359;53.048;8.732;2023-11-21T10:49:33;101916.66;;;7.46;77.03